createdAt,value
2022-09-29T00:00:13.074Z,4.65
2022-09-29T00:02:39.521Z,3.38
2022-09-29T00:05:06.109Z,3.03
2022-09-29T00:07:32.661Z,3.20
2022-09-29T00:09:58.911Z,3.17
2022-09-29T00:12:25.287Z,3.47
2022-09-29T00:14:51.616Z,4.38
2022-09-29T00:17:18.291Z,5.72
2022-09-29T00:19:44.536Z,3.08
2022-09-29T00:22:10.752Z,3.70
2022-09-29T00:24:36.971Z,3.15
2022-09-29T00:27:03.301Z,3.60
2022-09-29T00:29:29.544Z,4.20
2022-09-29T00:31:55.812Z,5.57
2022-09-29T00:34:22.136Z,5.32
2022-09-29T00:36:48.438Z,5.95
2022-09-29T00:39:14.700Z,4.93
2022-09-29T00:41:41.618Z,7.93
2022-09-29T00:44:13.864Z,10.30
2022-09-29T00:46:45.388Z,5.50
2022-09-29T00:49:14.519Z,3.45
2022-09-29T00:51:43.412Z,4.97
2022-09-29T00:54:10.440Z,3.45
2022-09-29T00:56:38.633Z,3.33
2022-09-29T00:59:07.542Z,2.90
2022-09-29T01:01:33.835Z,3.00
2022-09-29T01:04:03.506Z,4.40
2022-09-29T01:06:33.858Z,2.70
2022-09-29T01:09:02.128Z,3.53
2022-09-29T01:11:29.821Z,2.80
2022-09-29T01:14:01.471Z,3.55
2022-09-29T01:16:27.735Z,4.75
2022-09-29T01:18:54.035Z,2.80
2022-09-29T01:21:34.268Z,3.28
2022-09-29T01:24:00.464Z,3.47
2022-09-29T01:26:59.052Z,3.53
2022-09-29T01:29:43.197Z,3.83
2022-09-29T01:32:09.391Z,3.47
2022-09-29T01:34:45.752Z,3.08
2022-09-29T01:37:22.968Z,3.20
2022-09-29T01:40:02.075Z,3.35
2022-09-29T01:42:34.194Z,3.15
2022-09-29T01:45:23.896Z,3.47
2022-09-29T01:47:52.395Z,3.38
2022-09-29T01:50:22.176Z,5.57
2022-09-29T01:52:50.830Z,6.50
2022-09-29T01:55:18.146Z,5.22
2022-09-29T01:58:01.928Z,3.33
2022-09-29T02:00:31.747Z,3.35
2022-09-29T02:03:14.784Z,3.05
2022-09-29T02:05:51.710Z,4.40
2022-09-29T02:08:22.363Z,3.72
2022-09-29T02:11:00.802Z,2.92
2022-09-29T02:13:29.385Z,3.15
2022-09-29T02:15:57.327Z,3.38
2022-09-29T02:18:24.315Z,2.72
2022-09-29T02:20:50.764Z,3.05
2022-09-29T02:23:17.530Z,4.75
2022-09-29T02:25:44.162Z,3.30
2022-09-29T02:28:10.592Z,3.13
2022-09-29T02:30:36.968Z,6.82
2022-09-29T02:33:03.275Z,2.70
2022-09-29T02:35:35.837Z,2.50
2022-09-29T02:38:09.877Z,3.17
2022-09-29T02:40:52.489Z,2.65
2022-09-29T02:43:24.591Z,4.53
2022-09-29T02:45:54.025Z,2.50
2022-09-29T02:48:39.116Z,2.47
2022-09-29T02:51:20.423Z,5.80
2022-09-29T02:53:52.523Z,3.60
2022-09-29T02:56:24.929Z,2.45
2022-09-29T02:58:59.160Z,2.40
2022-09-29T03:01:25.523Z,2.55
2022-09-29T03:03:51.860Z,4.00
2022-09-29T03:06:19.233Z,2.90
2022-09-29T03:08:45.611Z,4.28
2022-09-29T03:11:11.847Z,3.10
2022-09-29T03:13:38.074Z,7.63
2022-09-29T03:16:04.332Z,3.45
2022-09-29T03:18:30.592Z,3.08
2022-09-29T03:20:56.875Z,2.85
2022-09-29T03:23:23.165Z,3.80
2022-09-29T03:25:49.397Z,3.40
2022-09-29T03:28:16.493Z,3.00
2022-09-29T03:30:42.906Z,17.33
2022-09-29T03:33:09.132Z,16.00
2022-09-29T03:35:35.364Z,6.97
2022-09-29T03:38:01.636Z,4.25
2022-09-29T03:40:28.261Z,2.80
2022-09-29T03:42:54.510Z,5.30
2022-09-29T03:45:20.752Z,6.22
2022-09-29T03:47:47.040Z,6.93
2022-09-29T03:50:13.374Z,13.98
2022-09-29T03:52:39.660Z,3.42
2022-09-29T03:55:06.131Z,20.90
2022-09-29T03:57:32.368Z,3.65
2022-09-29T03:59:58.599Z,3.10
2022-09-29T04:02:24.966Z,4.60
2022-09-29T04:04:51.267Z,4.38
2022-09-29T04:07:17.491Z,3.15
2022-09-29T04:09:43.762Z,3.03
2022-09-29T04:12:10.029Z,5.07
2022-09-29T04:14:36.290Z,3.05
2022-09-29T04:17:02.523Z,6.05
2022-09-29T04:19:28.801Z,4.05
2022-09-29T04:21:55.003Z,5.35
2022-09-29T04:24:21.233Z,7.38
2022-09-29T04:26:47.535Z,3.65
2022-09-29T04:29:13.826Z,4.60
2022-09-29T04:31:40.103Z,5.10
2022-09-29T04:34:06.375Z,6.90
2022-09-29T04:36:32.603Z,5.30
2022-09-29T04:38:59.120Z,5.13
2022-09-29T04:41:25.343Z,6.20
2022-09-29T04:43:51.583Z,3.88
2022-09-29T04:46:17.899Z,4.93
2022-09-29T04:48:44.191Z,4.43
2022-09-29T04:51:10.594Z,8.35
2022-09-29T04:53:37.486Z,5.10
2022-09-29T04:56:07.469Z,6.13
2022-09-29T04:58:34.091Z,5.10
2022-09-29T05:01:07.454Z,5.50
2022-09-29T05:03:33.769Z,6.03
2022-09-29T05:06:00.013Z,4.55
2022-09-29T05:08:26.276Z,7.10
2022-09-29T05:10:52.490Z,8.30
2022-09-29T05:13:18.732Z,9.27
2022-09-29T05:15:44.946Z,12.32
2022-09-29T05:18:11.183Z,5.60
2022-09-29T05:20:43.739Z,7.47
2022-09-29T05:23:16.899Z,5.43
2022-09-29T05:25:43.986Z,8.70
2022-09-29T05:28:11.123Z,14.27
2022-09-29T05:30:37.812Z,7.38
2022-09-29T05:33:04.355Z,10.73
2022-09-29T05:35:30.754Z,16.52
2022-09-29T05:37:57.006Z,8.32
2022-09-29T05:40:24.644Z,14.43
2022-09-29T05:42:51.600Z,5.28
2022-09-29T05:45:18.129Z,9.70
2022-09-29T05:47:45.105Z,17.70
2022-09-29T05:50:11.643Z,5.45
2022-09-29T05:52:38.498Z,4.70
2022-09-29T05:55:05.016Z,4.28
2022-09-29T05:57:31.765Z,3.75
2022-09-29T05:59:58.010Z,8.38
2022-09-29T06:02:24.359Z,8.38
2022-09-29T06:04:50.666Z,6.95
2022-09-29T06:07:16.899Z,6.70
2022-09-29T06:09:43.156Z,8.63
2022-09-29T06:12:09.371Z,8.25
2022-09-29T06:14:35.590Z,6.50
2022-09-29T06:17:01.808Z,18.77
2022-09-29T06:19:28.065Z,19.92
2022-09-29T06:21:54.286Z,30.88
2022-09-29T06:24:20.531Z,22.13
2022-09-29T06:26:46.842Z,39.95
2022-09-29T06:29:13.111Z,19.17
2022-09-29T06:31:39.474Z,9.13
2022-09-29T06:34:05.942Z,10.77
2022-09-29T06:36:55.648Z,17.90
2022-09-29T06:39:22.026Z,14.82
2022-09-29T06:41:56.084Z,13.27
2022-09-29T06:44:24.475Z,16.90
2022-09-29T06:46:51.259Z,17.85
2022-09-29T06:49:19.137Z,13.90
2022-09-29T06:51:46.563Z,17.02
2022-09-29T06:54:14.376Z,10.38
2022-09-29T06:56:40.655Z,12.75
2022-09-29T06:59:07.354Z,18.45
2022-09-29T07:01:34.036Z,13.95
2022-09-29T07:04:02.126Z,9.82
2022-09-29T07:06:29.199Z,9.93
2022-09-29T07:08:56.141Z,12.10
2022-09-29T07:11:22.527Z,9.82
2022-09-29T07:13:54.040Z,16.48
2022-09-29T07:16:23.567Z,10.57
2022-09-29T07:18:49.879Z,63.47
2022-09-29T07:21:17.687Z,12.05
2022-09-29T07:23:44.939Z,12.68
2022-09-29T07:26:12.055Z,12.98
2022-09-29T07:28:38.344Z,14.27
2022-09-29T07:31:13.724Z,34.42
2022-09-29T07:33:41.853Z,55.60
2022-09-29T07:36:08.297Z,73.40
2022-09-29T07:38:34.778Z,27.50
2022-09-29T07:41:02.332Z,33.35
2022-09-29T07:43:29.672Z,33.65
2022-09-29T07:45:56.178Z,16.88
2022-09-29T07:48:22.937Z,38.60
2022-09-29T07:50:49.212Z,40.90
2022-09-29T07:53:15.483Z,40.50
2022-09-29T07:55:41.771Z,78.00
2022-09-29T07:58:08.736Z,24.35
2022-09-29T08:00:34.977Z,35.75
2022-09-29T08:03:04.902Z,30.48
2022-09-29T08:05:33.923Z,27.55
2022-09-29T08:08:01.466Z,44.80
2022-09-29T08:10:28.591Z,45.38
2022-09-29T08:12:55.202Z,30.52
2022-09-29T08:15:21.846Z,36.97
2022-09-29T08:17:49.417Z,33.42
2022-09-29T08:20:15.759Z,54.60
2022-09-29T08:22:41.997Z,37.50
2022-09-29T08:25:08.581Z,38.17
2022-09-29T08:27:41.487Z,28.27
2022-09-29T08:30:14.032Z,41.63
2022-09-29T08:32:40.305Z,37.28
2022-09-29T08:35:06.811Z,35.38
2022-09-29T08:37:35.085Z,34.00
2022-09-29T08:40:01.809Z,41.35
2022-09-29T08:42:29.253Z,40.53
2022-09-29T08:45:11.477Z,42.83
2022-09-29T08:47:47.604Z,41.83
2022-09-29T08:50:33.362Z,56.03
2022-09-29T08:53:09.974Z,48.42
2022-09-29T08:55:40.211Z,54.17
2022-09-29T08:58:10.590Z,49.38
2022-09-29T09:00:43.046Z,49.47
2022-09-29T09:03:17.924Z,47.75
2022-09-29T09:05:47.139Z,61.55
2022-09-29T09:08:18.900Z,57.20
2022-09-29T09:10:47.590Z,51.15
2022-09-29T09:13:32.743Z,62.22
2022-09-29T09:16:07.751Z,62.78
2022-09-29T09:21:28.649Z,67.65
2022-09-29T09:23:59.947Z,77.72
2022-09-29T09:26:30.215Z,68.53
2022-09-29T09:28:58.574Z,66.78
2022-09-29T09:31:26.932Z,63.42
2022-09-29T09:34:06.465Z,68.00
2022-09-29T09:36:36.417Z,59.05
2022-09-29T09:39:06.249Z,62.50
2022-09-29T09:41:36.138Z,59.20
2022-09-29T09:44:16.015Z,69.20
2022-09-29T09:46:49.792Z,57.05
2022-09-29T09:49:26.131Z,60.63
2022-09-29T09:52:10.920Z,63.90
2022-09-29T09:54:42.726Z,62.13
2022-09-29T09:57:15.166Z,68.55
2022-09-29T09:59:47.841Z,56.90
2022-09-29T10:02:19.263Z,58.85
2022-09-29T10:04:48.341Z,57.92
2022-09-29T10:07:14.707Z,52.78
2022-09-29T10:09:41.138Z,48.05
2022-09-29T10:12:10.044Z,49.15
2022-09-29T10:14:36.430Z,49.83
2022-09-29T10:17:07.003Z,52.15
2022-09-29T10:19:53.321Z,51.80
2022-09-29T10:24:46.396Z,42.20
2022-09-29T10:27:18.230Z,45.53
2022-09-29T10:29:51.025Z,40.42
2022-09-29T10:32:22.700Z,50.70
2022-09-29T10:34:51.715Z,39.63
2022-09-29T10:37:23.667Z,43.72
2022-09-29T10:39:50.859Z,40.50
2022-09-29T10:42:24.245Z,38.38
2022-09-29T10:44:51.749Z,42.25
2022-09-29T10:47:19.343Z,36.40
2022-09-29T10:49:46.647Z,33.63
2022-09-29T10:52:31.130Z,35.63
2022-09-29T10:54:58.700Z,32.03
2022-09-29T10:57:27.099Z,28.65
2022-09-29T10:59:54.213Z,26.98
2022-09-29T11:02:35.120Z,30.83
2022-09-29T11:05:04.213Z,29.70
2022-09-29T11:07:31.660Z,29.13
2022-09-29T11:09:58.611Z,27.27
2022-09-29T11:12:31.796Z,24.10
2022-09-29T11:14:58.586Z,17.70
2022-09-29T11:17:29.115Z,14.60
2022-09-29T11:20:00.323Z,20.48
2022-09-29T11:22:41.683Z,16.80
2022-09-29T11:25:28.555Z,22.50
2022-09-29T11:28:20.654Z,24.98
2022-09-29T11:31:02.977Z,28.38
2022-09-29T11:33:36.031Z,17.17
2022-09-29T11:36:15.038Z,19.30
2022-09-29T11:38:41.566Z,32.20
2022-09-29T11:41:31.774Z,21.10
2022-09-29T11:44:07.923Z,19.45
2022-09-29T11:46:53.109Z,15.98
2022-09-29T11:49:25.999Z,16.17
2022-09-29T11:52:10.952Z,14.93
2022-09-29T11:54:57.440Z,14.40
2022-09-29T11:57:30.046Z,11.30
2022-09-29T12:00:07.847Z,14.20
2022-09-29T12:02:46.415Z,13.70
2022-09-29T12:05:23.186Z,12.32
2022-09-29T12:07:52.450Z,13.32
2022-09-29T12:10:35.960Z,8.25
2022-09-29T12:13:02.174Z,5.15
2022-09-29T12:15:46.730Z,5.93
2022-09-29T12:18:32.306Z,8.85
2022-09-29T12:20:58.811Z,20.67
2022-09-29T12:23:28.012Z,7.32
2022-09-29T12:26:13.252Z,8.77
2022-09-29T12:28:51.656Z,5.55
2022-09-29T12:31:35.369Z,14.25
2022-09-29T12:34:13.592Z,5.72
2022-09-29T12:36:54.964Z,4.13
2022-09-29T12:39:29.242Z,4.95
2022-09-29T12:42:01.294Z,4.07
2022-09-29T12:44:31.187Z,6.80
2022-09-29T12:47:14.499Z,5.03
2022-09-29T12:50:00.311Z,7.28
2022-09-29T12:52:29.320Z,4.35
2022-09-29T12:54:58.381Z,5.28
2022-09-29T12:57:26.281Z,2.88
2022-09-29T12:59:52.682Z,3.15
2022-09-29T13:02:31.210Z,2.88
2022-09-29T13:05:16.767Z,3.67
2022-09-29T13:07:43.091Z,2.83
2022-09-29T13:10:24.540Z,7.90
2022-09-29T13:13:08.819Z,3.47
2022-09-29T13:15:55.350Z,5.85
2022-09-29T13:18:30.513Z,5.47
2022-09-29T13:21:06.127Z,5.72
2022-09-29T13:23:32.307Z,3.80
2022-09-29T13:26:16.170Z,5.25
2022-09-29T13:28:47.873Z,4.40
2022-09-29T13:31:16.713Z,4.13
2022-09-29T13:33:50.646Z,4.40
2022-09-29T13:36:29.220Z,5.57
2022-09-29T13:38:57.971Z,4.07
2022-09-29T13:41:24.172Z,5.85
2022-09-29T13:43:50.421Z,4.55
2022-09-29T13:46:31.983Z,4.15
2022-09-29T13:49:13.515Z,3.30
2022-09-29T13:51:45.191Z,3.42
2022-09-29T13:54:14.569Z,4.28
2022-09-29T13:56:40.810Z,4.47
2022-09-29T13:59:15.416Z,3.50
2022-09-29T14:01:41.716Z,3.85
2022-09-29T14:04:26.516Z,4.80
2022-09-29T14:06:56.016Z,5.35
2022-09-29T14:09:23.342Z,3.70
2022-09-29T14:11:54.596Z,4.13
2022-09-29T14:14:24.435Z,3.95
2022-09-29T14:16:53.620Z,4.20
2022-09-29T14:19:27.331Z,3.90
2022-09-29T14:21:55.347Z,4.88
2022-09-29T14:24:36.855Z,5.30
2022-09-29T14:27:28.108Z,6.43
2022-09-29T14:30:03.836Z,5.75
2022-09-29T14:32:40.880Z,5.75
2022-09-29T14:35:15.011Z,6.57
2022-09-29T14:37:41.367Z,5.38
2022-09-29T14:40:27.016Z,6.05
2022-09-29T14:43:12.618Z,3.97
2022-09-29T14:46:08.615Z,5.20
2022-09-29T14:49:00.003Z,5.32
2022-09-29T14:51:49.787Z,6.05
2022-09-29T14:54:26.404Z,7.07
2022-09-29T14:56:52.612Z,4.75
2022-09-29T14:59:31.384Z,3.55
2022-09-29T15:02:00.587Z,4.40
2022-09-29T15:04:27.801Z,3.50
2022-09-29T15:06:54.075Z,3.83
2022-09-29T15:09:21.552Z,4.70
2022-09-29T15:11:51.173Z,6.63
2022-09-29T15:14:30.547Z,4.10
2022-09-29T15:16:59.876Z,3.47
2022-09-29T15:19:30.834Z,10.05
2022-09-29T15:22:16.168Z,5.00
2022-09-29T15:24:50.031Z,6.72
2022-09-29T15:27:16.400Z,5.00
2022-09-29T15:29:47.160Z,6.05
2022-09-29T15:34:39.728Z,3.58
2022-09-29T15:37:06.026Z,2.80
2022-09-29T15:39:33.002Z,2.88
2022-09-29T15:41:59.939Z,2.30
2022-09-29T15:44:28.569Z,2.97
2022-09-29T15:46:58.866Z,2.90
2022-09-29T15:49:26.015Z,5.82
2022-09-29T15:51:57.369Z,3.78
2022-09-29T15:54:24.636Z,2.40
2022-09-29T15:57:09.483Z,2.50
2022-09-29T15:59:41.474Z,3.40
2022-09-29T16:02:12.873Z,2.05
2022-09-29T16:04:39.689Z,1.60
2022-09-29T16:07:06.034Z,1.63
2022-09-29T16:09:34.670Z,2.08
2022-09-29T16:12:07.367Z,1.10
2022-09-29T16:14:34.016Z,1.38
2022-09-29T16:17:00.264Z,1.83
2022-09-29T16:19:28.132Z,1.40
2022-09-29T16:21:55.623Z,1.52
2022-09-29T16:24:23.288Z,1.50
2022-09-29T16:26:52.322Z,2.95
2022-09-29T16:29:18.575Z,4.28
2022-09-29T16:31:46.632Z,2.03
2022-09-29T16:34:39.048Z,1.40
2022-09-29T16:37:06.763Z,1.50
2022-09-29T16:39:39.491Z,1.63
2022-09-29T16:42:06.718Z,1.63
2022-09-29T16:44:43.490Z,4.45
2022-09-29T16:47:09.711Z,2.78
2022-09-29T16:49:37.367Z,4.38
2022-09-29T16:52:15.767Z,2.55
2022-09-29T16:54:43.532Z,3.03
2022-09-29T16:57:17.891Z,2.60
2022-09-29T16:59:45.187Z,3.50
2022-09-29T17:02:12.108Z,4.15
2022-09-29T17:04:38.455Z,7.60
2022-09-29T17:07:04.814Z,7.18
2022-09-29T17:09:31.247Z,5.15
2022-09-29T17:11:57.611Z,7.10
2022-09-29T17:14:25.059Z,3.80
2022-09-29T17:16:51.609Z,7.65
2022-09-29T17:19:18.512Z,10.80
2022-09-29T17:21:44.805Z,10.43
2022-09-29T17:24:11.034Z,22.70
2022-09-29T17:27:01.359Z,23.67
2022-09-29T17:29:28.427Z,20.40
2022-09-29T17:31:54.701Z,15.00
2022-09-29T17:34:29.495Z,12.75
2022-09-29T17:36:57.692Z,9.80
2022-09-29T17:39:23.939Z,8.02
2022-09-29T17:41:50.217Z,4.53
2022-09-29T17:44:16.640Z,4.88
2022-09-29T17:46:43.290Z,4.63
2022-09-29T17:49:11.544Z,7.75
2022-09-29T17:51:37.795Z,7.15
2022-09-29T17:54:04.465Z,7.50
2022-09-29T17:56:37.105Z,4.65
2022-09-29T17:59:05.426Z,5.95
2022-09-29T18:01:34.031Z,3.33
2022-09-29T18:04:00.876Z,3.85
2022-09-29T18:06:28.152Z,3.58
2022-09-29T18:08:55.271Z,7.25
2022-09-29T18:11:22.901Z,7.07
2022-09-29T18:13:49.135Z,4.22
2022-09-29T18:16:17.481Z,5.07
2022-09-29T18:18:43.766Z,4.97
2022-09-29T18:21:10.067Z,4.80
2022-09-29T18:23:37.086Z,3.53
2022-09-29T18:26:03.987Z,5.70
2022-09-29T18:28:30.455Z,3.58
2022-09-29T18:31:12.340Z,4.70
2022-09-29T18:33:38.944Z,6.18
2022-09-29T18:36:05.251Z,4.55
2022-09-29T18:38:31.466Z,8.48
2022-09-29T18:40:57.747Z,5.60
2022-09-29T18:43:25.745Z,10.82
2022-09-29T18:45:52.320Z,5.97
2022-09-29T18:48:18.903Z,5.63
2022-09-29T18:50:46.376Z,5.78
2022-09-29T18:53:13.671Z,4.60
2022-09-29T18:55:41.636Z,4.78
2022-09-29T18:58:11.672Z,8.25
2022-09-29T19:00:42.856Z,9.03
2022-09-29T19:03:09.152Z,7.38
2022-09-29T19:05:35.558Z,5.93
2022-09-29T19:08:03.178Z,12.48
2022-09-29T19:10:32.415Z,8.10
2022-09-29T19:13:01.376Z,8.23
2022-09-29T19:15:31.686Z,5.55
2022-09-29T19:18:00.862Z,5.82
2022-09-29T19:20:27.855Z,5.35
2022-09-29T19:22:54.896Z,8.55
2022-09-29T19:25:25.404Z,14.60
2022-09-29T19:27:51.754Z,13.88
2022-09-29T19:30:19.299Z,14.57
2022-09-29T19:32:45.575Z,12.27
2022-09-29T19:35:13.282Z,8.50
2022-09-29T19:37:39.916Z,8.80
2022-09-29T19:40:08.593Z,10.85
2022-09-29T19:42:34.859Z,9.70
2022-09-29T19:45:01.120Z,15.20
2022-09-29T19:47:27.495Z,11.07
2022-09-29T19:50:13.696Z,14.55
2022-09-29T19:52:39.964Z,12.15
2022-09-29T19:55:10.968Z,11.32
2022-09-29T19:57:41.052Z,33.28
2022-09-29T20:00:07.926Z,19.70
2022-09-29T20:02:34.233Z,18.95
2022-09-29T20:05:01.373Z,14.82
2022-09-29T20:07:27.650Z,12.00
2022-09-29T20:09:53.884Z,13.00
2022-09-29T20:12:20.106Z,8.88
2022-09-29T20:14:46.383Z,8.68
2022-09-29T20:17:13.847Z,6.18
2022-09-29T20:19:40.079Z,8.35
2022-09-29T20:22:09.271Z,7.20
2022-09-29T20:24:35.544Z,6.70
2022-09-29T20:27:01.788Z,5.15
2022-09-29T20:29:29.216Z,4.93
2022-09-29T20:31:55.505Z,5.75
2022-09-29T20:34:22.237Z,4.63
2022-09-29T20:36:54.219Z,6.55
2022-09-29T20:39:21.666Z,3.83
2022-09-29T20:41:49.908Z,12.55
2022-09-29T20:44:19.780Z,4.22
2022-09-29T20:46:46.327Z,6.07
2022-09-29T20:49:12.599Z,3.33
2022-09-29T20:51:38.874Z,4.65
2022-09-29T20:54:05.140Z,3.90
2022-09-29T20:56:35.715Z,2.70
2022-09-29T20:59:02.189Z,3.60
2022-09-29T21:01:29.662Z,9.15
2022-09-29T21:03:57.993Z,10.15
2022-09-29T21:06:25.656Z,10.32
2022-09-29T21:08:51.882Z,8.75
2022-09-29T21:11:18.487Z,6.47
2022-09-29T21:13:48.629Z,7.00
2022-09-29T21:16:14.905Z,9.33
2022-09-29T21:18:41.190Z,10.25
2022-09-29T21:21:10.590Z,14.43
2022-09-29T21:23:37.986Z,11.65
2022-09-29T21:26:05.506Z,9.45
2022-09-29T21:28:33.103Z,9.02
2022-09-29T21:31:00.027Z,6.53
2022-09-29T21:33:27.571Z,5.65
2022-09-29T21:36:00.759Z,5.55
2022-09-29T21:38:30.393Z,8.18
2022-09-29T21:41:06.842Z,7.30
2022-09-29T21:43:34.259Z,6.53
2022-09-29T21:46:04.112Z,3.55
2022-09-29T21:48:31.600Z,3.97
2022-09-29T21:51:05.293Z,7.07
2022-09-29T21:53:32.273Z,3.05
2022-09-29T21:55:59.184Z,2.97
2022-09-29T21:58:25.464Z,5.47
2022-09-29T22:00:51.906Z,2.55
2022-09-29T22:03:18.798Z,3.90
2022-09-29T22:05:45.187Z,1.95
2022-09-29T22:08:12.332Z,2.47
2022-09-29T22:10:38.858Z,2.55
2022-09-29T22:13:05.075Z,2.35
2022-09-29T22:15:32.479Z,4.22
2022-09-29T22:17:59.410Z,3.03
2022-09-29T22:20:25.998Z,4.93
2022-09-29T22:22:52.271Z,7.28
2022-09-29T22:25:18.587Z,3.83
2022-09-29T22:27:45.296Z,3.47
2022-09-29T22:30:11.592Z,3.90
2022-09-29T22:32:38.084Z,5.30
2022-09-29T22:35:04.566Z,2.70
2022-09-29T22:37:31.261Z,2.90
2022-09-29T22:39:57.603Z,3.33
2022-09-29T22:42:24.234Z,2.28
2022-09-29T22:44:50.434Z,2.92
2022-09-29T22:47:16.682Z,2.28
2022-09-29T22:49:42.945Z,2.15
2022-09-29T22:52:09.193Z,2.17
2022-09-29T22:54:35.449Z,3.30
2022-09-29T22:57:01.672Z,2.22
2022-09-29T22:59:27.964Z,3.65
2022-09-29T23:01:54.255Z,4.75
2022-09-29T23:04:20.604Z,3.58
2022-09-29T23:06:46.881Z,2.15
2022-09-29T23:09:13.234Z,2.30
2022-09-29T23:11:39.936Z,4.13
2022-09-29T23:14:07.046Z,2.45
2022-09-29T23:16:33.362Z,3.83
2022-09-29T23:18:59.729Z,2.38
2022-09-29T23:21:26.048Z,2.60
2022-09-29T23:23:54.823Z,2.75
2022-09-29T23:26:21.422Z,3.47
2022-09-29T23:28:48.989Z,2.22
2022-09-29T23:31:15.340Z,6.75
2022-09-29T23:33:41.622Z,4.63
2022-09-29T23:36:12.591Z,2.55
2022-09-29T23:41:26.900Z,3.72
2022-09-29T23:43:55.562Z,6.88
2022-09-29T23:46:26.360Z,18.83
2022-09-29T23:51:46.944Z,30.10
2022-09-29T23:56:39.668Z,16.65
2022-09-29T23:59:06.555Z,10.40
